Terminal Aerodrome Forecast
Issued by NWS

Home | Current Version | Previous Version | Text Only | Print | Product List | Glossary On
Versions: 1 2 3 4 5 6 7 8 9 10 11 12 13 14 15 16
859
FTAK31 PAJN 251144
TAFAGY
TAF
PAGY 251144Z 2512/2612 22009KT 1SM -SN BR FEW005 SCT010 OVC015
      TEMPO 2514/2515 3SM -SN BR BKN005
     FM251600 04010G20KT 5SM BR VCSH SCT015 BKN035 BKN100
     FM251800 04012G22KT P6SM SCT100
     FM260200 04007KT P6SM SCT080
      AMD LTD TO CLD VIS AND WIND=

USA.gov is the U.S. government's official web portal to all federal, state and local government web resources and services.